sensor_id;sensor_type;location;lat;lon;timestamp;P1;durP1;ratioP1;P2;durP2;ratioP2
75820;SDS011;64454;51.984;9.838;2023-11-21T00:00:28;8.50;;;5.40;;
75820;SDS011;64454;51.984;9.838;2023-11-21T00:02:54;6.35;;;4.50;;
75820;SDS011;64454;51.984;9.838;2023-11-21T00:05:21;7.38;;;4.30;;
75820;SDS011;64454;51.984;9.838;2023-11-21T00:07:48;10.93;;;4.82;;
75820;SDS011;64454;51.984;9.838;2023-11-21T00:10:14;5.90;;;4.40;;
75820;SDS011;64454;51.984;9.838;2023-11-21T00:12:41;9.02;;;4.72;;
75820;SDS011;64454;51.984;9.838;2023-11-21T00:15:08;8.43;;;4.53;;
75820;SDS011;64454;51.984;9.838;2023-11-21T00:17:36;9.97;;;5.60;;
75820;SDS011;64454;51.984;9.838;2023-11-21T00:20:03;7.53;;;5.00;;
75820;SDS011;64454;51.984;9.838;2023-11-21T00:22:31;9.00;;;5.80;;
75820;SDS011;64454;51.984;9.838;2023-11-21T00:24:57;6.93;;;5.30;;
75820;SDS011;64454;51.984;9.838;2023-11-21T00:27:24;10.77;;;6.03;;
75820;SDS011;64454;51.984;9.838;2023-11-21T00:29:50;8.52;;;4.80;;
75820;SDS011;64454;51.984;9.838;2023-11-21T00:32:17;10.05;;;4.80;;
75820;SDS011;64454;51.984;9.838;2023-11-21T00:34:43;10.50;;;5.20;;
75820;SDS011;64454;51.984;9.838;2023-11-21T00:37:10;9.35;;;5.30;;
75820;SDS011;64454;51.984;9.838;2023-11-21T00:39:36;6.03;;;4.15;;
75820;SDS011;64454;51.984;9.838;2023-11-21T00:42:03;7.82;;;4.22;;
75820;SDS011;64454;51.984;9.838;2023-11-21T00:44:30;8.20;;;4.28;;
75820;SDS011;64454;51.984;9.838;2023-11-21T00:46:56;6.38;;;4.15;;
75820;SDS011;64454;51.984;9.838;2023-11-21T00:49:23;6.00;;;4.30;;
75820;SDS011;64454;51.984;9.838;2023-11-21T00:51:49;7.70;;;4.28;;
75820;SDS011;64454;51.984;9.838;2023-11-21T00:54:16;7.28;;;3.90;;
75820;SDS011;64454;51.984;9.838;2023-11-21T00:56:42;4.72;;;4.22;;
75820;SDS011;64454;51.984;9.838;2023-11-21T00:59:08;6.65;;;4.32;;
75820;SDS011;64454;51.984;9.838;2023-11-21T01:01:35;6.40;;;4.63;;
75820;SDS011;64454;51.984;9.838;2023-11-21T01:04:02;9.98;;;5.82;;
75820;SDS011;64454;51.984;9.838;2023-11-21T01:06:31;5.68;;;4.05;;
75820;SDS011;64454;51.984;9.838;2023-11-21T01:08:58;7.15;;;5.13;;
75820;SDS011;64454;51.984;9.838;2023-11-21T01:11:24;8.75;;;4.85;;
75820;SDS011;64454;51.984;9.838;2023-11-21T01:13:51;7.90;;;4.60;;
75820;SDS011;64454;51.984;9.838;2023-11-21T01:16:18;7.40;;;4.93;;
75820;SDS011;64454;51.984;9.838;2023-11-21T01:18:44;11.97;;;6.20;;
75820;SDS011;64454;51.984;9.838;2023-11-21T01:21:11;7.13;;;5.00;;
75820;SDS011;64454;51.984;9.838;2023-11-21T01:23:37;6.43;;;4.22;;
75820;SDS011;64454;51.984;9.838;2023-11-21T01:26:04;8.95;;;5.10;;
75820;SDS011;64454;51.984;9.838;2023-11-21T01:28:30;10.23;;;6.10;;
75820;SDS011;64454;51.984;9.838;2023-11-21T01:30:57;7.55;;;5.07;;
75820;SDS011;64454;51.984;9.838;2023-11-21T01:33:23;12.68;;;4.85;;
75820;SDS011;64454;51.984;9.838;2023-11-21T01:35:50;7.38;;;4.35;;
75820;SDS011;64454;51.984;9.838;2023-11-21T01:38:19;7.57;;;4.78;;
75820;SDS011;64454;51.984;9.838;2023-11-21T01:40:46;7.40;;;4.15;;
75820;SDS011;64454;51.984;9.838;2023-11-21T01:43:13;6.00;;;4.20;;
75820;SDS011;64454;51.984;9.838;2023-11-21T01:45:39;6.85;;;4.63;;
75820;SDS011;64454;51.984;9.838;2023-11-21T01:48:05;8.50;;;4.20;;
75820;SDS011;64454;51.984;9.838;2023-11-21T01:50:32;7.93;;;5.45;;
75820;SDS011;64454;51.984;9.838;2023-11-21T01:52:59;10.55;;;4.85;;
75820;SDS011;64454;51.984;9.838;2023-11-21T01:55:26;8.27;;;4.80;;
75820;SDS011;64454;51.984;9.838;2023-11-21T01:57:54;7.85;;;4.95;;
75820;SDS011;64454;51.984;9.838;2023-11-21T02:00:22;7.40;;;4.55;;
75820;SDS011;64454;51.984;9.838;2023-11-21T02:02:49;7.03;;;5.78;;
75820;SDS011;64454;51.984;9.838;2023-11-21T02:05:16;7.97;;;4.90;;
75820;SDS011;64454;51.984;9.838;2023-11-21T02:07:44;10.10;;;5.93;;
75820;SDS011;64454;51.984;9.838;2023-11-21T02:10:13;7.85;;;5.60;;
75820;SDS011;64454;51.984;9.838;2023-11-21T02:12:40;8.48;;;5.00;;
75820;SDS011;64454;51.984;9.838;2023-11-21T02:15:08;8.90;;;4.63;;
75820;SDS011;64454;51.984;9.838;2023-11-21T02:17:40;7.43;;;5.00;;
75820;SDS011;64454;51.984;9.838;2023-11-21T02:20:09;7.97;;;4.57;;
75820;SDS011;64454;51.984;9.838;2023-11-21T02:22:40;7.75;;;4.80;;
75820;SDS011;64454;51.984;9.838;2023-11-21T02:25:09;7.72;;;5.15;;
75820;SDS011;64454;51.984;9.838;2023-11-21T02:27:36;9.55;;;5.18;;
75820;SDS011;64454;51.984;9.838;2023-11-21T02:30:03;8.85;;;5.18;;
75820;SDS011;64454;51.984;9.838;2023-11-21T02:32:30;7.97;;;6.13;;
75820;SDS011;64454;51.984;9.838;2023-11-21T02:34:56;10.07;;;5.90;;
75820;SDS011;64454;51.984;9.838;2023-11-21T02:37:26;10.30;;;6.38;;
75820;SDS011;64454;51.984;9.838;2023-11-21T02:39:52;8.13;;;5.50;;
75820;SDS011;64454;51.984;9.838;2023-11-21T02:42:19;7.35;;;4.55;;
75820;SDS011;64454;51.984;9.838;2023-11-21T02:44:45;7.55;;;4.65;;
75820;SDS011;64454;51.984;9.838;2023-11-21T02:47:11;8.45;;;5.00;;
75820;SDS011;64454;51.984;9.838;2023-11-21T02:49:37;9.67;;;6.20;;
75820;SDS011;64454;51.984;9.838;2023-11-21T02:52:04;8.43;;;5.95;;
75820;SDS011;64454;51.984;9.838;2023-11-21T02:54:30;10.63;;;5.88;;
75820;SDS011;64454;51.984;9.838;2023-11-21T02:57:01;7.95;;;4.78;;
75820;SDS011;64454;51.984;9.838;2023-11-21T02:59:28;8.43;;;6.00;;
75820;SDS011;64454;51.984;9.838;2023-11-21T03:01:54;8.20;;;5.30;;
75820;SDS011;64454;51.984;9.838;2023-11-21T03:04:22;8.70;;;5.90;;
75820;SDS011;64454;51.984;9.838;2023-11-21T03:06:48;8.77;;;5.18;;
75820;SDS011;64454;51.984;9.838;2023-11-21T03:09:14;10.45;;;5.85;;
75820;SDS011;64454;51.984;9.838;2023-11-21T03:11:41;9.35;;;5.53;;
75820;SDS011;64454;51.984;9.838;2023-11-21T03:14:07;9.07;;;5.38;;
75820;SDS011;64454;51.984;9.838;2023-11-21T03:16:34;12.25;;;6.70;;
75820;SDS011;64454;51.984;9.838;2023-11-21T03:19:01;9.90;;;6.45;;
75820;SDS011;64454;51.984;9.838;2023-11-21T03:21:27;8.57;;;5.35;;
75820;SDS011;64454;51.984;9.838;2023-11-21T03:23:54;9.45;;;6.40;;
75820;SDS011;64454;51.984;9.838;2023-11-21T03:26:20;8.95;;;5.82;;
75820;SDS011;64454;51.984;9.838;2023-11-21T03:28:47;10.38;;;6.50;;
75820;SDS011;64454;51.984;9.838;2023-11-21T03:31:13;7.17;;;6.00;;
75820;SDS011;64454;51.984;9.838;2023-11-21T03:33:41;8.27;;;6.37;;
75820;SDS011;64454;51.984;9.838;2023-11-21T03:36:08;10.90;;;6.50;;
75820;SDS011;64454;51.984;9.838;2023-11-21T03:38:35;9.65;;;6.45;;
75820;SDS011;64454;51.984;9.838;2023-11-21T03:41:01;9.65;;;6.68;;
75820;SDS011;64454;51.984;9.838;2023-11-21T03:43:28;8.05;;;5.95;;
75820;SDS011;64454;51.984;9.838;2023-11-21T03:45:54;12.63;;;6.35;;
75820;SDS011;64454;51.984;9.838;2023-11-21T03:48:20;11.38;;;6.70;;
75820;SDS011;64454;51.984;9.838;2023-11-21T03:50:47;14.43;;;7.32;;
75820;SDS011;64454;51.984;9.838;2023-11-21T03:53:13;13.65;;;7.30;;
75820;SDS011;64454;51.984;9.838;2023-11-21T03:55:39;16.17;;;7.40;;
75820;SDS011;64454;51.984;9.838;2023-11-21T03:58:06;10.07;;;6.10;;
75820;SDS011;64454;51.984;9.838;2023-11-21T04:00:32;11.95;;;6.75;;
75820;SDS011;64454;51.984;9.838;2023-11-21T04:02:58;10.32;;;7.18;;
75820;SDS011;64454;51.984;9.838;2023-11-21T04:05:24;10.43;;;7.07;;
75820;SDS011;64454;51.984;9.838;2023-11-21T04:07:51;11.85;;;7.20;;
75820;SDS011;64454;51.984;9.838;2023-11-21T04:10:17;9.95;;;6.85;;
75820;SDS011;64454;51.984;9.838;2023-11-21T04:12:44;10.15;;;6.85;;
75820;SDS011;64454;51.984;9.838;2023-11-21T04:15:11;10.90;;;7.15;;
75820;SDS011;64454;51.984;9.838;2023-11-21T04:17:38;12.10;;;8.03;;
75820;SDS011;64454;51.984;9.838;2023-11-21T04:20:05;8.80;;;6.68;;
75820;SDS011;64454;51.984;9.838;2023-11-21T04:22:34;11.68;;;7.13;;
75820;SDS011;64454;51.984;9.838;2023-11-21T04:25:06;11.50;;;7.10;;
75820;SDS011;64454;51.984;9.838;2023-11-21T04:27:33;10.52;;;7.38;;
75820;SDS011;64454;51.984;9.838;2023-11-21T04:30:00;10.65;;;6.57;;
75820;SDS011;64454;51.984;9.838;2023-11-21T04:32:26;10.32;;;7.43;;
75820;SDS011;64454;51.984;9.838;2023-11-21T04:34:52;9.50;;;7.15;;
75820;SDS011;64454;51.984;9.838;2023-11-21T04:37:18;7.35;;;6.18;;
75820;SDS011;64454;51.984;9.838;2023-11-21T04:39:44;12.80;;;7.25;;
75820;SDS011;64454;51.984;9.838;2023-11-21T04:42:11;9.77;;;7.25;;
75820;SDS011;64454;51.984;9.838;2023-11-21T04:44:38;11.18;;;6.82;;
75820;SDS011;64454;51.984;9.838;2023-11-21T04:47:06;11.73;;;7.00;;
75820;SDS011;64454;51.984;9.838;2023-11-21T04:49:32;8.90;;;6.55;;
75820;SDS011;64454;51.984;9.838;2023-11-21T04:51:58;8.68;;;6.70;;
75820;SDS011;64454;51.984;9.838;2023-11-21T04:54:26;9.50;;;6.38;;
75820;SDS011;64454;51.984;9.838;2023-11-21T04:56:52;12.80;;;7.65;;
75820;SDS011;64454;51.984;9.838;2023-11-21T04:59:19;10.95;;;6.97;;
75820;SDS011;64454;51.984;9.838;2023-11-21T05:01:45;12.40;;;6.30;;
75820;SDS011;64454;51.984;9.838;2023-11-21T05:04:12;11.10;;;6.63;;
75820;SDS011;64454;51.984;9.838;2023-11-21T05:06:39;11.60;;;7.60;;
75820;SDS011;64454;51.984;9.838;2023-11-21T05:09:05;10.35;;;6.82;;
75820;SDS011;64454;51.984;9.838;2023-11-21T05:11:36;11.67;;;7.50;;
75820;SDS011;64454;51.984;9.838;2023-11-21T05:14:03;9.60;;;7.60;;
75820;SDS011;64454;51.984;9.838;2023-11-21T05:16:31;12.73;;;8.40;;
75820;SDS011;64454;51.984;9.838;2023-11-21T05:18:58;15.07;;;8.82;;
75820;SDS011;64454;51.984;9.838;2023-11-21T05:21:26;14.63;;;9.15;;
75820;SDS011;64454;51.984;9.838;2023-11-21T05:23:53;14.02;;;9.32;;
75820;SDS011;64454;51.984;9.838;2023-11-21T05:26:19;15.05;;;9.68;;
75820;SDS011;64454;51.984;9.838;2023-11-21T05:28:46;16.42;;;9.00;;
75820;SDS011;64454;51.984;9.838;2023-11-21T05:31:12;16.70;;;10.20;;
75820;SDS011;64454;51.984;9.838;2023-11-21T05:33:40;15.23;;;8.90;;
75820;SDS011;64454;51.984;9.838;2023-11-21T05:36:06;14.75;;;9.88;;
75820;SDS011;64454;51.984;9.838;2023-11-21T05:38:35;12.65;;;9.30;;
75820;SDS011;64454;51.984;9.838;2023-11-21T05:41:01;14.10;;;9.05;;
75820;SDS011;64454;51.984;9.838;2023-11-21T05:43:28;14.52;;;9.70;;
75820;SDS011;64454;51.984;9.838;2023-11-21T05:45:55;16.83;;;9.00;;
75820;SDS011;64454;51.984;9.838;2023-11-21T05:48:22;12.80;;;8.20;;
75820;SDS011;64454;51.984;9.838;2023-11-21T05:50:49;13.45;;;8.07;;
75820;SDS011;64454;51.984;9.838;2023-11-21T05:53:15;11.75;;;7.93;;
75820;SDS011;64454;51.984;9.838;2023-11-21T05:55:41;12.55;;;8.30;;
75820;SDS011;64454;51.984;9.838;2023-11-21T05:58:08;12.48;;;8.63;;
75820;SDS011;64454;51.984;9.838;2023-11-21T06:00:34;15.45;;;9.48;;
75820;SDS011;64454;51.984;9.838;2023-11-21T06:03:02;14.02;;;8.90;;
75820;SDS011;64454;51.984;9.838;2023-11-21T06:05:32;15.10;;;9.30;;
75820;SDS011;64454;51.984;9.838;2023-11-21T06:07:59;14.00;;;9.40;;
75820;SDS011;64454;51.984;9.838;2023-11-21T06:10:26;11.80;;;8.60;;
75820;SDS011;64454;51.984;9.838;2023-11-21T06:12:53;13.52;;;9.50;;
75820;SDS011;64454;51.984;9.838;2023-11-21T06:15:19;14.75;;;9.27;;
75820;SDS011;64454;51.984;9.838;2023-11-21T06:17:48;14.35;;;9.35;;
75820;SDS011;64454;51.984;9.838;2023-11-21T06:20:17;13.48;;;9.18;;
75820;SDS011;64454;51.984;9.838;2023-11-21T06:22:46;12.70;;;8.50;;
75820;SDS011;64454;51.984;9.838;2023-11-21T06:25:16;12.75;;;9.20;;
75820;SDS011;64454;51.984;9.838;2023-11-21T06:27:43;10.80;;;8.40;;
75820;SDS011;64454;51.984;9.838;2023-11-21T06:30:11;12.55;;;8.90;;
75820;SDS011;64454;51.984;9.838;2023-11-21T06:32:40;15.33;;;10.57;;
75820;SDS011;64454;51.984;9.838;2023-11-21T06:35:10;17.20;;;10.27;;
75820;SDS011;64454;51.984;9.838;2023-11-21T06:37:38;16.27;;;10.40;;
75820;SDS011;64454;51.984;9.838;2023-11-21T06:40:05;15.38;;;10.15;;
75820;SDS011;64454;51.984;9.838;2023-11-21T06:42:34;17.87;;;10.07;;
75820;SDS011;64454;51.984;9.838;2023-11-21T06:45:00;19.30;;;10.25;;
75820;SDS011;64454;51.984;9.838;2023-11-21T06:47:29;21.17;;;11.13;;
75820;SDS011;64454;51.984;9.838;2023-11-21T06:49:55;15.33;;;9.87;;
75820;SDS011;64454;51.984;9.838;2023-11-21T06:52:22;17.33;;;10.50;;
75820;SDS011;64454;51.984;9.838;2023-11-21T06:54:51;18.55;;;10.63;;
75820;SDS011;64454;51.984;9.838;2023-11-21T06:57:17;16.97;;;11.00;;
75820;SDS011;64454;51.984;9.838;2023-11-21T06:59:44;17.27;;;9.95;;
75820;SDS011;64454;51.984;9.838;2023-11-21T07:02:10;16.00;;;10.18;;
75820;SDS011;64454;51.984;9.838;2023-11-21T07:04:36;17.07;;;10.00;;
75820;SDS011;64454;51.984;9.838;2023-11-21T07:07:03;21.80;;;10.25;;
75820;SDS011;64454;51.984;9.838;2023-11-21T07:09:31;16.88;;;10.18;;
75820;SDS011;64454;51.984;9.838;2023-11-21T07:11:58;17.92;;;10.52;;
75820;SDS011;64454;51.984;9.838;2023-11-21T07:14:24;16.07;;;10.00;;
75820;SDS011;64454;51.984;9.838;2023-11-21T07:16:51;15.60;;;9.63;;
75820;SDS011;64454;51.984;9.838;2023-11-21T07:19:18;15.70;;;9.85;;
75820;SDS011;64454;51.984;9.838;2023-11-21T07:21:44;17.33;;;10.15;;
75820;SDS011;64454;51.984;9.838;2023-11-21T07:24:11;17.48;;;10.70;;
75820;SDS011;64454;51.984;9.838;2023-11-21T07:26:37;15.75;;;10.20;;
75820;SDS011;64454;51.984;9.838;2023-11-21T07:29:03;16.92;;;10.35;;
75820;SDS011;64454;51.984;9.838;2023-11-21T07:31:31;17.40;;;9.77;;
75820;SDS011;64454;51.984;9.838;2023-11-21T07:33:59;19.38;;;11.43;;
75820;SDS011;64454;51.984;9.838;2023-11-21T07:36:26;14.73;;;8.90;;
75820;SDS011;64454;51.984;9.838;2023-11-21T07:38:52;15.85;;;10.10;;
75820;SDS011;64454;51.984;9.838;2023-11-21T07:41:19;15.18;;;9.73;;
75820;SDS011;64454;51.984;9.838;2023-11-21T07:43:45;15.73;;;9.75;;
75820;SDS011;64454;51.984;9.838;2023-11-21T07:46:12;17.05;;;10.45;;
75820;SDS011;64454;51.984;9.838;2023-11-21T07:48:39;15.93;;;9.60;;
75820;SDS011;64454;51.984;9.838;2023-11-21T07:51:06;18.52;;;9.35;;
75820;SDS011;64454;51.984;9.838;2023-11-21T07:53:34;19.13;;;10.85;;
75820;SDS011;64454;51.984;9.838;2023-11-21T07:56:02;15.00;;;9.20;;
75820;SDS011;64454;51.984;9.838;2023-11-21T07:58:30;17.58;;;10.10;;
75820;SDS011;64454;51.984;9.838;2023-11-21T08:00:58;13.82;;;10.10;;
75820;SDS011;64454;51.984;9.838;2023-11-21T08:03:25;17.17;;;9.82;;
75820;SDS011;64454;51.984;9.838;2023-11-21T08:05:51;16.13;;;9.70;;
75820;SDS011;64454;51.984;9.838;2023-11-21T08:08:18;16.85;;;10.40;;
75820;SDS011;64454;51.984;9.838;2023-11-21T08:10:44;14.48;;;9.18;;
75820;SDS011;64454;51.984;9.838;2023-11-21T08:13:21;14.00;;;9.30;;
75820;SDS011;64454;51.984;9.838;2023-11-21T08:15:47;16.88;;;10.73;;
75820;SDS011;64454;51.984;9.838;2023-11-21T08:18:14;14.77;;;10.00;;
75820;SDS011;64454;51.984;9.838;2023-11-21T08:20:41;16.80;;;11.10;;
75820;SDS011;64454;51.984;9.838;2023-11-21T08:23:07;15.18;;;9.80;;
75820;SDS011;64454;51.984;9.838;2023-11-21T08:25:34;14.52;;;9.27;;
75820;SDS011;64454;51.984;9.838;2023-11-21T08:28:00;15.65;;;10.25;;
75820;SDS011;64454;51.984;9.838;2023-11-21T08:30:27;16.35;;;10.60;;
75820;SDS011;64454;51.984;9.838;2023-11-21T08:32:55;15.20;;;11.05;;
75820;SDS011;64454;51.984;9.838;2023-11-21T08:35:23;18.27;;;10.45;;
75820;SDS011;64454;51.984;9.838;2023-11-21T08:37:50;15.70;;;10.35;;
75820;SDS011;64454;51.984;9.838;2023-11-21T08:40:18;14.85;;;10.45;;
75820;SDS011;64454;51.984;9.838;2023-11-21T08:42:45;15.82;;;9.30;;
75820;SDS011;64454;51.984;9.838;2023-11-21T08:45:11;13.90;;;10.68;;
75820;SDS011;64454;51.984;9.838;2023-11-21T08:47:38;16.15;;;11.10;;
75820;SDS011;64454;51.984;9.838;2023-11-21T08:50:04;16.73;;;11.55;;
75820;SDS011;64454;51.984;9.838;2023-11-21T08:52:32;16.87;;;11.70;;
75820;SDS011;64454;51.984;9.838;2023-11-21T08:54:58;18.08;;;11.88;;
75820;SDS011;64454;51.984;9.838;2023-11-21T08:57:27;16.10;;;10.23;;
75820;SDS011;64454;51.984;9.838;2023-11-21T08:59:55;11.90;;;7.72;;
75820;SDS011;64454;51.984;9.838;2023-11-21T09:02:21;10.75;;;7.13;;
75820;SDS011;64454;51.984;9.838;2023-11-21T09:04:49;6.65;;;4.43;;
75820;SDS011;64454;51.984;9.838;2023-11-21T09:07:17;1.90;;;1.55;;
75820;SDS011;64454;51.984;9.838;2023-11-21T09:09:44;1.40;;;1.10;;
75820;SDS011;64454;51.984;9.838;2023-11-21T09:12:10;1.40;;;1.30;;
75820;SDS011;64454;51.984;9.838;2023-11-21T09:14:37;2.10;;;1.40;;
75820;SDS011;64454;51.984;9.838;2023-11-21T09:17:04;1.60;;;1.25;;
75820;SDS011;64454;51.984;9.838;2023-11-21T09:19:35;1.70;;;1.33;;
75820;SDS011;64454;51.984;9.838;2023-11-21T09:22:02;1.60;;;1.48;;
75820;SDS011;64454;51.984;9.838;2023-11-21T09:24:30;1.42;;;1.10;;
75820;SDS011;64454;51.984;9.838;2023-11-21T09:26:56;1.45;;;1.10;;
75820;SDS011;64454;51.984;9.838;2023-11-21T09:29:22;1.63;;;1.10;;
75820;SDS011;64454;51.984;9.838;2023-11-21T09:31:49;1.52;;;1.27;;
75820;SDS011;64454;51.984;9.838;2023-11-21T09:34:16;3.05;;;1.10;;
75820;SDS011;64454;51.984;9.838;2023-11-21T09:36:45;1.65;;;1.40;;
75820;SDS011;64454;51.984;9.838;2023-11-21T09:39:11;2.10;;;1.25;;
75820;SDS011;64454;51.984;9.838;2023-11-21T09:41:40;1.90;;;1.48;;
75820;SDS011;64454;51.984;9.838;2023-11-21T09:44:13;1.83;;;1.40;;
75820;SDS011;64454;51.984;9.838;2023-11-21T09:46:43;1.90;;;1.33;;
75820;SDS011;64454;51.984;9.838;2023-11-21T09:49:13;3.10;;;1.50;;
75820;SDS011;64454;51.984;9.838;2023-11-21T09:51:45;1.80;;;1.40;;
75820;SDS011;64454;51.984;9.838;2023-11-21T09:54:13;1.40;;;1.30;;
75820;SDS011;64454;51.984;9.838;2023-11-21T09:56:42;2.20;;;1.50;;
75820;SDS011;64454;51.984;9.838;2023-11-21T09:59:09;1.60;;;1.35;;
75820;SDS011;64454;51.984;9.838;2023-11-21T10:01:41;1.50;;;1.33;;
75820;SDS011;64454;51.984;9.838;2023-11-21T10:04:08;3.10;;;1.85;;
75820;SDS011;64454;51.984;9.838;2023-11-21T10:06:37;3.20;;;1.83;;
75820;SDS011;64454;51.984;9.838;2023-11-21T10:09:07;3.00;;;2.28;;
75820;SDS011;64454;51.984;9.838;2023-11-21T10:11:37;2.33;;;1.80;;
75820;SDS011;64454;51.984;9.838;2023-11-21T10:14:06;2.40;;;1.70;;
75820;SDS011;64454;51.984;9.838;2023-11-21T10:16:37;2.38;;;1.83;;
75820;SDS011;64454;51.984;9.838;2023-11-21T10:19:04;3.20;;;2.60;;
75820;SDS011;64454;51.984;9.838;2023-11-21T10:21:32;2.70;;;2.30;;
75820;SDS011;64454;51.984;9.838;2023-11-21T10:23:58;3.80;;;2.40;;
75820;SDS011;64454;51.984;9.838;2023-11-21T10:26:25;2.80;;;2.05;;
75820;SDS011;64454;51.984;9.838;2023-11-21T10:28:56;2.92;;;1.88;;
75820;SDS011;64454;51.984;9.838;2023-11-21T10:31:23;4.30;;;2.65;;
75820;SDS011;64454;51.984;9.838;2023-11-21T10:33:49;5.23;;;3.50;;
75820;SDS011;64454;51.984;9.838;2023-11-21T10:36:20;7.47;;;4.05;;
75820;SDS011;64454;51.984;9.838;2023-11-21T10:38:51;8.75;;;4.40;;
75820;SDS011;64454;51.984;9.838;2023-11-21T10:41:18;8.32;;;4.70;;
75820;SDS011;64454;51.984;9.838;2023-11-21T10:43:46;11.68;;;5.32;;
75820;SDS011;64454;51.984;9.838;2023-11-21T10:46:12;8.20;;;5.90;;
75820;SDS011;64454;51.984;9.838;2023-11-21T10:48:41;10.73;;;5.30;;
75820;SDS011;64454;51.984;9.838;2023-11-21T10:51:08;9.57;;;5.70;;
75820;SDS011;64454;51.984;9.838;2023-11-21T10:53:37;8.07;;;5.20;;
75820;SDS011;64454;51.984;9.838;2023-11-21T10:56:06;7.55;;;5.40;;
75820;SDS011;64454;51.984;9.838;2023-11-21T10:58:42;9.23;;;6.07;;
75820;SDS011;64454;51.984;9.838;2023-11-21T11:01:09;8.03;;;6.10;;
75820;SDS011;64454;51.984;9.838;2023-11-21T11:03:37;7.78;;;5.65;;
75820;SDS011;64454;51.984;9.838;2023-11-21T11:06:04;6.97;;;5.82;;
75820;SDS011;64454;51.984;9.838;2023-11-21T11:08:36;7.20;;;6.00;;
75820;SDS011;64454;51.984;9.838;2023-11-21T11:11:03;9.27;;;6.18;;
75820;SDS011;64454;51.984;9.838;2023-11-21T11:13:30;8.50;;;6.00;;
75820;SDS011;64454;51.984;9.838;2023-11-21T11:15:57;7.45;;;6.10;;
75820;SDS011;64454;51.984;9.838;2023-11-21T11:18:27;7.77;;;5.60;;
75820;SDS011;64454;51.984;9.838;2023-11-21T11:20:54;9.70;;;6.70;;
75820;SDS011;64454;51.984;9.838;2023-11-21T11:23:36;8.85;;;6.20;;
75820;SDS011;64454;51.984;9.838;2023-11-21T11:26:24;8.70;;;5.60;;
75820;SDS011;64454;51.984;9.838;2023-11-21T11:29:03;8.32;;;6.05;;
75820;SDS011;64454;51.984;9.838;2023-11-21T11:31:45;7.15;;;5.10;;
75820;SDS011;64454;51.984;9.838;2023-11-21T11:34:26;7.82;;;5.28;;
75820;SDS011;64454;51.984;9.838;2023-11-21T11:36:58;6.57;;;5.10;;
75820;SDS011;64454;51.984;9.838;2023-11-21T11:39:28;7.10;;;5.38;;
75820;SDS011;64454;51.984;9.838;2023-11-21T11:41:56;5.45;;;4.70;;
75820;SDS011;64454;51.984;9.838;2023-11-21T11:47:22;5.35;;;4.40;;
75820;SDS011;64454;51.984;9.838;2023-11-21T11:52:42;6.43;;;4.30;;
75820;SDS011;64454;51.984;9.838;2023-11-21T11:55:14;5.90;;;4.80;;
75820;SDS011;64454;51.984;9.838;2023-11-21T11:57:43;5.32;;;4.50;;
75820;SDS011;64454;51.984;9.838;2023-11-21T12:00:13;5.10;;;4.30;;
75820;SDS011;64454;51.984;9.838;2023-11-21T12:02:44;5.72;;;4.15;;
75820;SDS011;64454;51.984;9.838;2023-11-21T12:05:13;5.37;;;4.87;;
75820;SDS011;64454;51.984;9.838;2023-11-21T12:07:48;6.95;;;5.30;;
75820;SDS011;64454;51.984;9.838;2023-11-21T12:10:18;5.60;;;4.70;;
75820;SDS011;64454;51.984;9.838;2023-11-21T12:12:50;6.28;;;4.72;;
75820;SDS011;64454;51.984;9.838;2023-11-21T12:15:18;6.30;;;4.95;;
75820;SDS011;64454;51.984;9.838;2023-11-21T12:17:46;7.05;;;5.65;;
75820;SDS011;64454;51.984;9.838;2023-11-21T12:20:15;6.05;;;5.13;;
75820;SDS011;64454;51.984;9.838;2023-11-21T12:22:45;9.10;;;5.60;;
75820;SDS011;64454;51.984;9.838;2023-11-21T12:25:14;7.85;;;5.38;;
75820;SDS011;64454;51.984;9.838;2023-11-21T12:27:43;7.85;;;5.53;;
75820;SDS011;64454;51.984;9.838;2023-11-21T12:30:11;6.70;;;5.30;;
75820;SDS011;64454;51.984;9.838;2023-11-21T12:32:40;7.13;;;5.50;;
75820;SDS011;64454;51.984;9.838;2023-11-21T12:35:08;6.53;;;5.40;;
75820;SDS011;64454;51.984;9.838;2023-11-21T12:37:36;6.20;;;5.05;;
75820;SDS011;64454;51.984;9.838;2023-11-21T12:40:04;8.48;;;5.57;;
75820;SDS011;64454;51.984;9.838;2023-11-21T12:42:33;6.13;;;5.53;;
75820;SDS011;64454;51.984;9.838;2023-11-21T12:45:07;6.53;;;5.40;;
75820;SDS011;64454;51.984;9.838;2023-11-21T12:47:40;7.18;;;4.95;;
75820;SDS011;64454;51.984;9.838;2023-11-21T12:50:08;5.55;;;4.45;;
75820;SDS011;64454;51.984;9.838;2023-11-21T12:52:40;6.07;;;4.85;;
75820;SDS011;64454;51.984;9.838;2023-11-21T12:55:12;6.70;;;5.25;;
75820;SDS011;64454;51.984;9.838;2023-11-21T12:57:44;6.80;;;5.47;;
75820;SDS011;64454;51.984;9.838;2023-11-21T13:00:12;9.90;;;5.30;;
75820;SDS011;64454;51.984;9.838;2023-11-21T13:02:50;6.90;;;5.43;;
75820;SDS011;64454;51.984;9.838;2023-11-21T13:05:23;8.50;;;6.88;;
75820;SDS011;64454;51.984;9.838;2023-11-21T13:07:51;6.82;;;5.00;;
75820;SDS011;64454;51.984;9.838;2023-11-21T13:10:19;8.20;;;5.80;;
75820;SDS011;64454;51.984;9.838;2023-11-21T13:12:51;5.90;;;4.60;;
75820;SDS011;64454;51.984;9.838;2023-11-21T13:15:19;5.90;;;4.90;;
75820;SDS011;64454;51.984;9.838;2023-11-21T13:17:46;6.00;;;5.07;;
75820;SDS011;64454;51.984;9.838;2023-11-21T13:20:12;6.43;;;4.97;;
75820;SDS011;64454;51.984;9.838;2023-11-21T13:22:44;7.85;;;5.22;;
75820;SDS011;64454;51.984;9.838;2023-11-21T13:25:14;5.13;;;4.55;;
75820;SDS011;64454;51.984;9.838;2023-11-21T13:27:43;5.65;;;5.05;;
75820;SDS011;64454;51.984;9.838;2023-11-21T13:30:11;5.43;;;4.60;;
75820;SDS011;64454;51.984;9.838;2023-11-21T13:32:40;6.80;;;4.75;;
75820;SDS011;64454;51.984;9.838;2023-11-21T13:35:07;6.05;;;4.40;;
75820;SDS011;64454;51.984;9.838;2023-11-21T13:37:40;7.07;;;5.07;;
75820;SDS011;64454;51.984;9.838;2023-11-21T13:40:07;4.70;;;4.15;;
75820;SDS011;64454;51.984;9.838;2023-11-21T13:42:40;5.60;;;4.50;;
75820;SDS011;64454;51.984;9.838;2023-11-21T13:45:08;6.43;;;4.93;;
75820;SDS011;64454;51.984;9.838;2023-11-21T13:47:35;6.13;;;4.97;;
75820;SDS011;64454;51.984;9.838;2023-11-21T13:50:03;8.73;;;5.25;;
75820;SDS011;64454;51.984;9.838;2023-11-21T13:52:39;6.85;;;5.40;;
75820;SDS011;64454;51.984;9.838;2023-11-21T13:55:05;6.43;;;4.70;;
75820;SDS011;64454;51.984;9.838;2023-11-21T13:57:39;6.00;;;4.65;;
75820;SDS011;64454;51.984;9.838;2023-11-21T14:00:10;4.88;;;4.13;;
75820;SDS011;64454;51.984;9.838;2023-11-21T14:02:58;5.85;;;4.68;;
75820;SDS011;64454;51.984;9.838;2023-11-21T14:05:25;5.20;;;4.50;;
75820;SDS011;64454;51.984;9.838;2023-11-21T14:07:54;6.45;;;4.32;;
75820;SDS011;64454;51.984;9.838;2023-11-21T14:10:25;6.10;;;4.90;;
75820;SDS011;64454;51.984;9.838;2023-11-21T14:12:51;6.13;;;4.68;;
75820;SDS011;64454;51.984;9.838;2023-11-21T14:15:18;9.80;;;5.10;;
75820;SDS011;64454;51.984;9.838;2023-11-21T14:17:44;7.30;;;4.80;;
75820;SDS011;64454;51.984;9.838;2023-11-21T14:20:10;6.53;;;4.35;;
75820;SDS011;64454;51.984;9.838;2023-11-21T14:22:41;5.73;;;4.67;;
75820;SDS011;64454;51.984;9.838;2023-11-21T14:25:07;4.95;;;4.43;;
75820;SDS011;64454;51.984;9.838;2023-11-21T14:27:36;5.43;;;4.20;;
75820;SDS011;64454;51.984;9.838;2023-11-21T14:30:03;4.40;;;3.60;;
75820;SDS011;64454;51.984;9.838;2023-11-21T14:32:31;5.53;;;4.60;;
75820;SDS011;64454;51.984;9.838;2023-11-21T14:34:57;5.90;;;4.22;;
75820;SDS011;64454;51.984;9.838;2023-11-21T14:37:24;4.72;;;4.22;;
75820;SDS011;64454;51.984;9.838;2023-11-21T14:39:50;5.70;;;4.13;;
75820;SDS011;64454;51.984;9.838;2023-11-21T14:42:16;5.13;;;4.22;;
75820;SDS011;64454;51.984;9.838;2023-11-21T14:44:49;5.78;;;4.20;;
75820;SDS011;64454;51.984;9.838;2023-11-21T14:47:17;6.30;;;4.57;;
75820;SDS011;64454;51.984;9.838;2023-11-21T14:49:50;6.30;;;4.90;;